createdAt,value
2022-12-26T00:00:23.059Z,101260.56
2022-12-26T00:01:25.704Z,101257.34
2022-12-26T00:02:27.675Z,101250.53
2022-12-26T00:03:30.817Z,101255.41
2022-12-26T00:04:50.994Z,101247.81
2022-12-26T00:05:54.448Z,101254.03
2022-12-26T00:06:56.285Z,101249.44
2022-12-26T00:07:58.184Z,101254.59
2022-12-26T00:09:01.674Z,101248.91
2022-12-26T00:10:06.353Z,101249.44
2022-12-26T00:11:08.144Z,101252.69
2022-12-26T00:12:09.935Z,101253.25
2022-12-26T00:13:38.207Z,101248.09
2022-12-26T00:14:33.600Z,101244.59
2022-12-26T00:15:35.737Z,101252.16
2022-12-26T00:16:37.843Z,101247.84
2022-12-26T00:17:39.766Z,101256.00
2022-12-26T00:18:42.122Z,101253.81
2022-12-26T00:19:44.027Z,101249.19
2022-12-26T00:20:46.013Z,101261.94
2022-12-26T00:21:47.832Z,101253.53
2022-12-26T00:22:49.676Z,101260.59
2022-12-26T00:23:57.632Z,101255.97
2022-12-26T00:25:00.980Z,101257.59
2022-12-26T00:26:13.220Z,101256.50
2022-12-26T00:27:15.467Z,101259.75
2022-12-26T00:28:17.290Z,101254.91
2022-12-26T00:29:19.384Z,101259.75
2022-12-26T00:30:21.233Z,101263.59
2022-12-26T00:31:25.147Z,101264.13
2022-12-26T00:32:27.392Z,101265.19
2022-12-26T00:33:29.175Z,101260.03
2022-12-26T00:34:31.091Z,101273.88
2022-12-26T00:35:32.971Z,101273.31
2022-12-26T00:36:34.802Z,101266.56
2022-12-26T00:37:36.837Z,101275.50
2022-12-26T00:38:39.375Z,101276.06
2022-12-26T00:39:41.251Z,101279.56
2022-12-26T00:40:45.109Z,101280.09
2022-12-26T00:41:46.984Z,101277.66
2022-12-26T00:42:48.745Z,101281.47
2022-12-26T00:43:51.039Z,101281.47
2022-12-26T00:44:52.873Z,101291.22
2022-12-26T00:45:54.706Z,101278.22
2022-12-26T00:46:56.751Z,101279.28
2022-12-26T00:47:59.787Z,101281.19
2022-12-26T00:49:01.736Z,101292.03
2022-12-26T00:50:12.810Z,101284.47
2022-12-26T00:51:18.183Z,101294.75
2022-12-26T00:52:20.336Z,101293.38
2022-12-26T00:53:23.001Z,101293.94
2022-12-26T00:54:24.972Z,101296.63
2022-12-26T00:55:26.876Z,101287.97
2022-12-26T00:56:28.827Z,101290.66
2022-12-26T00:57:30.675Z,101298.25
2022-12-26T00:58:32.705Z,101298.81
2022-12-26T00:59:34.636Z,101299.88
2022-12-26T01:00:41.992Z,101300.44
2022-12-26T01:01:44.022Z,101302.06
2022-12-26T01:02:46.386Z,101304.78
2022-12-26T01:03:49.102Z,101301.50
2022-12-26T01:04:50.942Z,101290.66
2022-12-26T01:05:52.840Z,101301.25
2022-12-26T01:06:54.700Z,101296.94
2022-12-26T01:08:23.584Z,101290.69
2022-12-26T01:09:18.415Z,101296.09
2022-12-26T01:10:20.298Z,101298.25
2022-12-26T01:11:40.652Z,101302.63
2022-12-26T01:12:42.769Z,101296.09
2022-12-26T01:13:44.604Z,101299.63
2022-12-26T01:14:47.107Z,101294.72
2022-12-26T01:15:53.109Z,101294.50
2022-12-26T01:16:55.109Z,101284.16
2022-12-26T01:17:58.411Z,101292.31
2022-12-26T01:19:00.256Z,101281.19
2022-12-26T01:20:04.307Z,101294.47
2022-12-26T01:21:08.806Z,101289.59
2022-12-26T01:22:10.731Z,101285.81
2022-12-26T01:23:12.836Z,101296.09
2022-12-26T01:24:14.992Z,101285.53
2022-12-26T01:25:17.871Z,101297.44
2022-12-26T01:26:20.399Z,101301.53
2022-12-26T01:27:23.075Z,101292.84
2022-12-26T01:28:24.908Z,101298.00
2022-12-26T01:29:26.994Z,101297.19
2022-12-26T01:30:28.986Z,101289.88
2022-12-26T01:31:30.914Z,101298.81
2022-12-26T01:32:35.025Z,101292.28
2022-12-26T01:33:37.150Z,101293.38
2022-12-26T01:34:39.085Z,101284.72
2022-12-26T01:35:48.707Z,101288.50
2022-12-26T01:36:52.020Z,101292.31
2022-12-26T01:37:54.328Z,101289.59
2022-12-26T01:38:56.258Z,101291.78
2022-12-26T01:39:58.102Z,101293.94
2022-12-26T01:41:19.866Z,101290.66
2022-12-26T01:42:23.384Z,101290.69
2022-12-26T01:43:26.180Z,101295.28
2022-12-26T01:44:46.976Z,101297.19
2022-12-26T01:45:50.962Z,101305.03
2022-12-26T01:46:53.150Z,101293.34
2022-12-26T01:47:54.998Z,101293.06
2022-12-26T01:48:59.709Z,101293.31
2022-12-26T01:50:01.961Z,101290.63
2022-12-26T01:51:06.532Z,101295.00
2022-12-26T01:52:10.000Z,101296.88
2022-12-26T01:53:11.805Z,101296.59
2022-12-26T01:54:40.219Z,101300.97
2022-12-26T01:55:37.094Z,101297.72
2022-12-26T01:56:41.977Z,101299.06
2022-12-26T01:57:50.329Z,101301.22
2022-12-26T01:58:58.632Z,101293.34
2022-12-26T02:00:01.744Z,101302.03
2022-12-26T02:01:05.544Z,101302.84
2022-12-26T02:02:08.399Z,101296.63
2022-12-26T02:03:29.607Z,101295.56
2022-12-26T02:04:55.934Z,101301.81
2022-12-26T02:06:00.103Z,101295.28
2022-12-26T02:07:03.571Z,101303.72
2022-12-26T02:08:17.143Z,101302.06
2022-12-26T02:09:19.839Z,101305.88
2022-12-26T02:10:23.695Z,101309.09
2022-12-26T02:11:32.657Z,101306.41
2022-12-26T02:12:39.135Z,101304.78
2022-12-26T02:14:02.080Z,101306.94
2022-12-26T02:15:05.507Z,101304.78
2022-12-26T02:16:09.191Z,101304.50
2022-12-26T02:17:11.191Z,101303.72
2022-12-26T02:18:13.101Z,101300.97
2022-12-26T02:19:38.098Z,101296.09
2022-12-26T02:20:45.797Z,101295.31
2022-12-26T02:21:47.584Z,101294.19
2022-12-26T02:23:05.332Z,101289.59
2022-12-26T02:24:25.655Z,101287.97
2022-12-26T02:25:36.237Z,101285.25
2022-12-26T02:26:41.033Z,101286.91
2022-12-26T02:27:51.877Z,101291.78
2022-12-26T02:28:59.676Z,101290.69
2022-12-26T02:30:06.216Z,101286.34
2022-12-26T02:31:11.564Z,101294.75
2022-12-26T02:32:29.524Z,101296.09
2022-12-26T02:33:44.450Z,101287.97
2022-12-26T02:34:54.606Z,101290.69
2022-12-26T02:36:22.463Z,101289.88
2022-12-26T02:37:39.826Z,101298.25
2022-12-26T02:38:53.272Z,101292.28
2022-12-26T02:40:10.064Z,101298.25
2022-12-26T02:41:15.014Z,101295.00
2022-12-26T02:42:24.783Z,101294.47
2022-12-26T02:43:46.558Z,101298.81
2022-12-26T02:45:17.577Z,101304.22
2022-12-26T02:46:43.779Z,101297.19
2022-12-26T02:47:56.231Z,101299.63
2022-12-26T02:49:04.363Z,101298.25
2022-12-26T02:50:24.611Z,101299.63
2022-12-26T02:52:03.696Z,101303.69
2022-12-26T02:53:44.540Z,101303.66
2022-12-26T02:55:10.727Z,101305.84
2022-12-26T02:56:50.207Z,101306.41
2022-12-26T02:58:20.617Z,101301.53
2022-12-26T02:59:53.913Z,101311.84
2022-12-26T03:01:19.677Z,101309.13
2022-12-26T03:02:47.267Z,101308.56
2022-12-26T03:04:09.895Z,101299.91
2022-12-26T03:05:34.115Z,101295.28
2022-12-26T03:06:56.828Z,101296.38
2022-12-26T03:08:18.427Z,101300.72
2022-12-26T03:09:42.531Z,101293.38
2022-12-26T03:11:03.228Z,101296.91
2022-12-26T03:12:26.769Z,101285.81
2022-12-26T03:13:33.445Z,101300.19
2022-12-26T03:14:58.211Z,101293.94
2022-12-26T03:16:23.317Z,101295.53
2022-12-26T03:17:45.825Z,101299.63
2022-12-26T03:18:56.884Z,101295.03
2022-12-26T03:20:02.409Z,101300.16
2022-12-26T03:21:05.946Z,101303.44
2022-12-26T03:22:29.480Z,101294.22
2022-12-26T03:23:32.114Z,101303.69
2022-12-26T03:24:53.968Z,101306.66
2022-12-26T03:26:15.928Z,101311.81
2022-12-26T03:27:17.863Z,101317.78
2022-12-26T03:28:19.828Z,101308.56
2022-12-26T03:29:42.239Z,101318.88
2022-12-26T03:30:50.576Z,101315.63
2022-12-26T03:31:52.609Z,101317.25
2022-12-26T03:32:58.137Z,101309.13
2022-12-26T03:34:18.596Z,101309.09
2022-12-26T03:35:20.750Z,101310.19
2022-12-26T03:36:35.526Z,101308.03
2022-12-26T03:37:52.984Z,101310.19
2022-12-26T03:39:18.193Z,101302.59
2022-12-26T03:40:51.904Z,101306.94
2022-12-26T03:42:18.663Z,101304.78
2022-12-26T03:43:42.130Z,101297.72
2022-12-26T03:45:19.112Z,101311.28
2022-12-26T03:46:55.343Z,101301.53
2022-12-26T03:48:38.975Z,101308.03
2022-12-26T03:50:03.593Z,101307.22
2022-12-26T03:51:30.197Z,101301.25
2022-12-26T03:53:16.328Z,101302.59
2022-12-26T03:54:47.102Z,101306.94
2022-12-26T03:56:15.259Z,101309.13
2022-12-26T03:57:37.561Z,101306.13
2022-12-26T03:59:04.127Z,101308.56
2022-12-26T04:00:27.377Z,101309.38
2022-12-26T04:01:49.067Z,101301.78
2022-12-26T04:03:11.479Z,101305.31
2022-12-26T04:04:34.156Z,101305.06
2022-12-26T04:05:56.257Z,101298.25
2022-12-26T04:07:21.019Z,101304.78
2022-12-26T04:08:47.787Z,101302.06
2022-12-26T04:10:11.576Z,101310.72
2022-12-26T04:11:37.557Z,101318.56
2022-12-26T04:12:59.514Z,101313.44
2022-12-26T04:14:27.891Z,101315.59
2022-12-26T04:15:58.171Z,101310.44
2022-12-26T04:17:31.486Z,101315.63
2022-12-26T04:19:12.413Z,101321.03
2022-12-26T04:20:33.556Z,101315.06
2022-12-26T04:21:59.240Z,101313.44
2022-12-26T04:23:19.417Z,101322.13
2022-12-26T04:24:43.137Z,101322.09
2022-12-26T04:26:23.977Z,101315.06
2022-12-26T04:27:47.158Z,101311.56
2022-12-26T04:29:07.840Z,101311.81
2022-12-26T04:30:28.643Z,101315.63
2022-12-26T04:32:03.842Z,101313.19
2022-12-26T04:33:30.303Z,101311.28
2022-12-26T04:35:01.789Z,101310.19
2022-12-26T04:36:27.587Z,101316.16
2022-12-26T04:37:49.820Z,101310.75
2022-12-26T04:39:13.977Z,101313.47
2022-12-26T04:40:37.571Z,101309.66
2022-12-26T04:41:59.036Z,101320.75
2022-12-26T04:43:48.041Z,101317.78
2022-12-26T04:45:04.494Z,101330.28
2022-12-26T04:46:25.182Z,101321.03
2022-12-26T04:47:39.207Z,101326.47
2022-12-26T04:51:20.341Z,101316.94
2022-12-26T04:52:51.435Z,101326.97
2022-12-26T04:53:59.232Z,101328.63
2022-12-26T04:55:17.674Z,101327.25
2022-12-26T04:56:24.560Z,101327.53
2022-12-26T04:57:28.800Z,101334.03
2022-12-26T04:58:32.133Z,101330.81
2022-12-26T04:59:35.579Z,101328.63
2022-12-26T05:01:14.527Z,101326.97
2022-12-26T05:02:41.478Z,101340.28
2022-12-26T05:04:08.502Z,101337.31
2022-12-26T05:05:51.520Z,101345.44
2022-12-26T05:07:31.760Z,101336.47
2022-12-26T05:09:35.984Z,101339.97
2022-12-26T05:10:43.093Z,101337.03
2022-12-26T05:12:09.857Z,101350.81
2022-12-26T05:13:47.426Z,101345.38
2022-12-26T05:15:00.995Z,101350.75
2022-12-26T05:18:44.957Z,101351.31
2022-12-26T05:20:06.758Z,101346.13
2022-12-26T05:21:35.695Z,101351.88
2022-12-26T05:22:58.589Z,101344.50
2022-12-26T05:24:21.214Z,101350.47
2022-12-26T05:25:44.381Z,101347.25
2022-12-26T05:27:05.168Z,101351.09
2022-12-26T05:28:28.340Z,101347.53
2022-12-26T05:29:35.290Z,101352.94
2022-12-26T05:30:37.889Z,101353.22
2022-12-26T05:31:40.970Z,101355.38
2022-12-26T05:33:03.150Z,101351.31
2022-12-26T05:34:13.022Z,101349.44
2022-12-26T05:35:15.745Z,101352.72
2022-12-26T05:36:19.184Z,101356.78
2022-12-26T05:37:21.321Z,101361.06
2022-12-26T05:38:23.634Z,101358.34
2022-12-26T05:39:28.471Z,101361.00
2022-12-26T05:40:33.452Z,101359.44
2022-12-26T05:41:41.572Z,101354.56
2022-12-26T05:42:47.230Z,101351.81
2022-12-26T05:43:54.488Z,101358.38
2022-12-26T05:44:59.308Z,101356.78
2022-12-26T05:46:01.632Z,101354.28
2022-12-26T05:47:10.320Z,101350.72
2022-12-26T05:48:28.861Z,101345.31
2022-12-26T05:49:35.544Z,101350.25
2022-12-26T05:51:13.722Z,101352.09
2022-12-26T05:52:30.644Z,101354.59
2022-12-26T05:53:40.337Z,101360.78
2022-12-26T05:54:49.833Z,101363.78
2022-12-26T05:55:53.987Z,101358.06
2022-12-26T05:56:58.669Z,101364.84
2022-12-26T05:58:04.231Z,101352.94
2022-12-26T05:59:10.479Z,101356.16
2022-12-26T06:00:22.276Z,101356.69
2022-12-26T06:01:31.502Z,101360.22
2022-12-26T06:04:09.509Z,101364.28
2022-12-26T06:05:41.613Z,101359.94
2022-12-26T06:13:48.666Z,101361.56
2022-12-26T06:17:13.350Z,101364.84
2022-12-26T06:18:24.867Z,101371.34
2022-12-26T06:19:35.098Z,101367.53
2022-12-26T06:20:41.936Z,101362.66
2022-12-26T06:21:48.370Z,101366.47
2022-12-26T06:23:11.785Z,101367.00
2022-12-26T06:24:19.298Z,101367.78
2022-12-26T06:25:24.473Z,101378.38
2022-12-26T06:33:36.890Z,101373.00
2022-12-26T06:36:56.226Z,101376.28
2022-12-26T06:40:19.983Z,101386.09
2022-12-26T06:45:01.284Z,101389.81
2022-12-26T06:47:54.486Z,101406.06
2022-12-26T06:48:57.109Z,101414.75
2022-12-26T06:49:59.340Z,101412.28
2022-12-26T06:51:25.615Z,101414.19
2022-12-26T06:52:30.127Z,101416.91
2022-12-26T06:53:49.062Z,101417.97
2022-12-26T06:56:47.021Z,101420.19
2022-12-26T06:57:55.036Z,101418.25
2022-12-26T06:59:09.223Z,101415.84
2022-12-26T07:00:13.008Z,101416.41
2022-12-26T07:01:17.826Z,101421.25
2022-12-26T07:02:20.640Z,101421.28
2022-12-26T07:03:26.234Z,101418.56
2022-12-26T07:04:28.419Z,101421.75
2022-12-26T07:05:30.747Z,101412.06
2022-12-26T07:06:35.399Z,101422.13
2022-12-26T07:07:39.508Z,101421.81
2022-12-26T07:08:43.752Z,101429.38
2022-12-26T07:09:46.475Z,101433.16
2022-12-26T07:10:48.643Z,101431.53
2022-12-26T07:11:56.570Z,101423.50
2022-12-26T07:12:58.880Z,101438.06
2022-12-26T07:14:02.493Z,101419.69
2022-12-26T07:15:05.648Z,101422.34
2022-12-26T07:16:07.685Z,101429.09
2022-12-26T07:17:11.389Z,101430.47
2022-12-26T07:18:13.556Z,101426.19
2022-12-26T07:19:16.048Z,101425.59
2022-12-26T07:20:19.000Z,101429.88
2022-12-26T07:21:21.375Z,101428.31
2022-12-26T07:22:25.721Z,101433.22
2022-12-26T07:23:27.665Z,101422.34
2022-12-26T07:24:29.777Z,101430.25
2022-12-26T07:25:32.592Z,101432.13
2022-12-26T07:26:34.835Z,101426.69
2022-12-26T07:27:41.126Z,101427.53
2022-12-26T07:28:43.192Z,101421.84
2022-12-26T07:29:46.798Z,101419.41
2022-12-26T07:30:51.414Z,101432.16
2022-12-26T07:31:57.030Z,101428.63
2022-12-26T07:32:59.181Z,101431.31
2022-12-26T07:34:01.746Z,101432.31
2022-12-26T07:35:03.977Z,101434.72
2022-12-26T07:36:08.000Z,101437.44
2022-12-26T07:37:11.094Z,101433.66
2022-12-26T07:38:13.700Z,101430.38
2022-12-26T07:39:15.983Z,101439.66
2022-12-26T07:40:21.319Z,101429.38
2022-12-26T07:41:42.484Z,101438.03
2022-12-26T07:42:45.746Z,101440.81
2022-12-26T07:43:47.923Z,101432.72
2022-12-26T07:44:51.125Z,101427.56
2022-12-26T07:45:53.412Z,101438.41
2022-12-26T07:46:56.471Z,101440.81
2022-12-26T07:48:03.427Z,101430.81
2022-12-26T07:49:07.467Z,101432.16
2022-12-26T07:50:11.622Z,101426.75
2022-12-26T07:51:13.798Z,101440.31
2022-12-26T07:52:16.153Z,101437.31
2022-12-26T07:53:20.839Z,101442.75
2022-12-26T07:54:24.490Z,101434.91
2022-12-26T07:55:26.749Z,101441.41
2022-12-26T07:56:29.112Z,101438.16
2022-12-26T07:57:48.164Z,101438.72
2022-12-26T07:58:52.291Z,101441.97
2022-12-26T07:59:54.697Z,101440.94
2022-12-26T08:01:00.940Z,101443.09
2022-12-26T08:02:05.321Z,101438.72
2022-12-26T08:03:09.677Z,101443.59
2022-12-26T08:04:12.776Z,101434.94
2022-12-26T08:05:14.988Z,101445.28
2022-12-26T08:06:18.128Z,101446.34
2022-12-26T08:07:23.108Z,101447.38
2022-12-26T08:08:24.985Z,101448.22
2022-12-26T08:09:27.013Z,101444.16
2022-12-26T08:10:30.027Z,101447.44
2022-12-26T08:11:35.082Z,101451.78
2022-12-26T08:12:38.529Z,101448.78
2022-12-26T08:13:40.781Z,101452.34
2022-12-26T08:14:43.165Z,101450.44
2022-12-26T08:15:45.646Z,101446.63
2022-12-26T08:16:53.160Z,101446.03
2022-12-26T08:17:56.022Z,101448.22
2022-12-26T08:19:03.311Z,101448.78
2022-12-26T08:20:06.179Z,101443.59
2022-12-26T08:21:09.360Z,101440.09
2022-12-26T08:22:11.617Z,101447.88
2022-12-26T08:23:14.853Z,101450.38
2022-12-26T08:24:17.450Z,101463.06
2022-12-26T08:25:22.200Z,101451.44
2022-12-26T08:26:25.142Z,101454.72
2022-12-26T08:27:27.663Z,101457.22
2022-12-26T08:28:29.941Z,101448.50
2022-12-26T08:29:37.048Z,101458.81
2022-12-26T08:30:57.455Z,101449.06
2022-12-26T08:33:35.070Z,101451.78
2022-12-26T08:34:40.073Z,101452.31
2022-12-26T09:08:14.648Z,101443.13
2022-12-26T09:09:19.182Z,101444.22
2022-12-26T09:10:25.693Z,101443.41
2022-12-26T09:11:29.083Z,101446.63
2022-12-26T09:12:34.024Z,101440.66
2022-12-26T09:13:54.015Z,101442.56
2022-12-26T09:15:03.146Z,101443.94
2022-12-26T09:16:11.345Z,101450.94
2022-12-26T09:17:14.294Z,101455.00
2022-12-26T09:18:19.069Z,101450.94
2022-12-26T09:19:23.849Z,101449.59
2022-12-26T09:21:03.943Z,101455.00
2022-12-26T09:22:28.283Z,101447.47
2022-12-26T09:23:39.404Z,101445.84
2022-12-26T09:24:41.982Z,101456.13
2022-12-26T09:25:44.128Z,101453.94
2022-12-26T09:26:47.390Z,101454.50
2022-12-26T09:27:54.212Z,101450.75
2022-12-26T09:29:03.043Z,101444.47
2022-12-26T09:30:05.918Z,101450.72
2022-12-26T09:31:16.793Z,101446.13
2022-12-26T09:32:28.111Z,101442.56
2022-12-26T09:34:50.978Z,101449.03
2022-12-26T09:35:57.065Z,101447.97
2022-12-26T09:37:04.909Z,101444.72
2022-12-26T09:38:11.865Z,101438.75
2022-12-26T09:39:16.508Z,101443.94
2022-12-26T09:40:24.306Z,101442.53
2022-12-26T09:41:33.852Z,101438.75
2022-12-26T09:42:54.621Z,101443.66
2022-12-26T09:44:29.647Z,101429.53
2022-12-26T09:45:42.299Z,101425.72
2022-12-26T09:46:58.989Z,101432.25
2022-12-26T09:48:21.103Z,101439.88
2022-12-26T09:49:28.358Z,101431.97
2022-12-26T09:50:42.951Z,101440.13
2022-12-26T09:51:58.990Z,101428.41
2022-12-26T09:53:07.239Z,101429.25
2022-12-26T09:54:15.384Z,101429.53
2022-12-26T09:55:29.829Z,101428.91
2022-12-26T09:57:01.691Z,101428.41
2022-12-26T09:58:02.784Z,101427.88
2022-12-26T09:59:14.184Z,101425.47
2022-12-26T10:00:20.525Z,101431.41
2022-12-26T10:01:28.445Z,101428.97
2022-12-26T10:02:30.854Z,101425.47
2022-12-26T10:03:38.071Z,101426.28
2022-12-26T10:04:41.124Z,101424.91
2022-12-26T10:06:01.173Z,101421.13
2022-12-26T10:07:22.387Z,101420.31
2022-12-26T10:08:41.564Z,101413.25
2022-12-26T10:09:51.922Z,101415.44
2022-12-26T10:10:56.835Z,101411.66
2022-12-26T10:12:05.763Z,101413.84
2022-12-26T10:13:36.018Z,101414.09
2022-12-26T10:14:51.280Z,101415.72
2022-12-26T10:15:58.332Z,101413.28
2022-12-26T10:17:17.593Z,101427.38
2022-12-26T10:18:23.226Z,101422.22
2022-12-26T10:19:44.825Z,101420.88
2022-12-26T10:21:00.410Z,101423.59
2022-12-26T10:22:09.699Z,101416.81
2022-12-26T10:23:15.177Z,101420.88
2022-12-26T10:24:20.458Z,101410.56
2022-12-26T10:25:33.731Z,101418.16
2022-12-26T10:26:41.941Z,101412.19
2022-12-26T10:27:46.169Z,101411.09
2022-12-26T10:29:15.146Z,101411.66
2022-12-26T10:30:36.562Z,101407.84
2022-12-26T10:31:44.191Z,101410.56
2022-12-26T10:32:49.617Z,101410.56
2022-12-26T10:33:52.316Z,101406.75
2022-12-26T10:34:55.042Z,101409.47
2022-12-26T10:35:58.263Z,101403.00
2022-12-26T10:37:04.486Z,101413.81
2022-12-26T10:38:27.911Z,101416.00
2022-12-26T10:39:40.203Z,101404.34
2022-12-26T10:40:48.088Z,101414.09
2022-12-26T10:41:53.574Z,101401.88
2022-12-26T10:42:58.682Z,101407.84
2022-12-26T10:44:01.679Z,101411.09
2022-12-26T10:45:14.053Z,101407.31
2022-12-26T10:46:38.327Z,101410.25
2022-12-26T10:47:42.285Z,101410.53
2022-12-26T10:48:44.676Z,101418.69
2022-12-26T10:49:50.801Z,101412.72
2022-12-26T10:50:55.978Z,101408.38
2022-12-26T10:52:00.985Z,101414.91
2022-12-26T10:53:09.047Z,101399.16
2022-12-26T10:54:18.155Z,101411.34
2022-12-26T10:55:31.502Z,101407.28
2022-12-26T10:56:34.354Z,101402.97
2022-12-26T10:57:37.206Z,101400.78
2022-12-26T10:58:40.291Z,101399.44
2022-12-26T10:59:46.857Z,101399.72
2022-12-26T11:00:49.686Z,101402.44
2022-12-26T11:01:59.794Z,101402.44
2022-12-26T11:03:10.183Z,101394.53
2022-12-26T11:04:31.428Z,101402.41
2022-12-26T11:06:10.859Z,101402.97
2022-12-26T11:07:22.533Z,101398.63
2022-12-26T11:08:55.321Z,101400.22
2022-12-26T11:10:19.848Z,101401.31
2022-12-26T11:11:43.469Z,101402.97
2022-12-26T11:17:28.942Z,101398.56
2022-12-26T11:18:54.341Z,101405.69
2022-12-26T11:20:16.242Z,101397.50
2022-12-26T11:21:18.173Z,101399.09
2022-12-26T11:22:20.652Z,101402.34
2022-12-26T11:23:33.279Z,101407.44
2022-12-26T11:24:36.252Z,101408.91
2022-12-26T11:25:47.994Z,101406.19
2022-12-26T11:26:52.800Z,101401.78
2022-12-26T11:27:59.167Z,101398.06
2022-12-26T11:29:07.937Z,101397.53
2022-12-26T11:30:18.740Z,101400.72
2022-12-26T11:31:25.350Z,101404.00
2022-12-26T11:32:27.829Z,101410.00
2022-12-26T11:33:30.013Z,101406.44
2022-12-26T11:34:34.769Z,101400.22
2022-12-26T11:35:38.072Z,101394.78
2022-12-26T11:36:45.595Z,101391.28
2022-12-26T11:37:51.088Z,101396.97
2022-12-26T11:39:00.669Z,101393.72
2022-12-26T11:40:04.935Z,101390.22
2022-12-26T11:41:36.040Z,101394.56
2022-12-26T11:42:38.049Z,101402.38
2022-12-26T11:43:39.850Z,101395.91
2022-12-26T11:44:42.735Z,101395.34
2022-12-26T11:45:50.321Z,101389.38
2022-12-26T11:46:52.572Z,101394.78
2022-12-26T11:47:56.330Z,101398.06
2022-12-26T11:48:58.713Z,101394.28
2022-12-26T11:50:12.231Z,101391.78
2022-12-26T11:51:15.175Z,101389.38
2022-12-26T11:52:38.018Z,101398.34
2022-12-26T11:53:40.071Z,101394.28
2022-12-26T11:54:49.406Z,101396.97
2022-12-26T11:56:07.293Z,101398.88
2022-12-26T11:57:15.506Z,101401.00
2022-12-26T11:58:25.137Z,101396.72
2022-12-26T11:59:26.952Z,101395.31
2022-12-26T12:00:29.043Z,101391.19
2022-12-26T12:01:30.932Z,101393.09
2022-12-26T12:02:33.356Z,101392.59
2022-12-26T12:03:47.000Z,101392.06
2022-12-26T12:04:52.494Z,101402.31
2022-12-26T12:06:12.695Z,101397.47
2022-12-26T12:07:37.077Z,101408.81
2022-12-26T12:08:48.209Z,101399.84
2022-12-26T12:10:03.070Z,101404.75
2022-12-26T12:11:05.044Z,101401.78
2022-12-26T12:12:16.125Z,101407.72
2022-12-26T12:13:20.702Z,101401.00
2022-12-26T12:14:34.652Z,101401.78
2022-12-26T12:15:55.402Z,101398.22
2022-12-26T12:17:03.855Z,101404.13
2022-12-26T12:18:10.839Z,101400.72
2022-12-26T12:19:24.782Z,101402.63
2022-12-26T12:20:36.459Z,101399.88
2022-12-26T12:21:44.916Z,101396.38
2022-12-26T12:22:46.920Z,101392.06
2022-12-26T12:23:59.985Z,101397.94
2022-12-26T12:25:02.781Z,101391.44
2022-12-26T12:26:12.370Z,101396.88
2022-12-26T12:27:29.503Z,101392.81
2022-12-26T12:28:46.716Z,101392.25
2022-12-26T12:29:48.540Z,101399.31
2022-12-26T12:31:09.655Z,101390.16
2022-12-26T12:32:18.591Z,101388.75
2022-12-26T12:33:27.317Z,101393.88
2022-12-26T12:34:35.181Z,101389.81
2022-12-26T12:35:45.951Z,101394.16
2022-12-26T12:36:54.124Z,101399.50
2022-12-26T12:37:58.695Z,101388.13
2022-12-26T12:39:19.632Z,101397.56
2022-12-26T12:40:21.602Z,101396.25
2022-12-26T12:41:24.601Z,101394.66
2022-12-26T12:42:32.256Z,101395.72
2022-12-26T12:43:37.100Z,101407.13
2022-12-26T12:44:42.700Z,101395.16
2022-12-26T12:46:17.119Z,101396.78
2022-12-26T12:47:19.147Z,101404.41
2022-12-26T12:48:39.542Z,101397.09
2022-12-26T12:49:44.196Z,101398.16
2022-12-26T12:50:56.932Z,101399.50
2022-12-26T12:52:17.339Z,101402.22
2022-12-26T12:53:22.313Z,101403.28
2022-12-26T12:54:25.215Z,101403.34
2022-12-26T12:55:29.637Z,101404.59
2022-12-26T12:56:57.096Z,101406.56
2022-12-26T12:58:05.574Z,101400.84
2022-12-26T12:59:18.701Z,101406.00
2022-12-26T13:00:24.085Z,101400.06
2022-12-26T13:01:45.028Z,101406.84
2022-12-26T13:03:06.060Z,101396.25
2022-12-26T13:04:18.713Z,101401.13
2022-12-26T13:05:26.343Z,101394.06
2022-12-26T13:06:34.776Z,101395.13
2022-12-26T13:07:43.427Z,101397.88
2022-12-26T13:08:52.305Z,101396.69
2022-12-26T13:09:58.954Z,101395.13
2022-12-26T13:11:06.681Z,101383.44
2022-12-26T13:12:22.913Z,101387.47
2022-12-26T13:13:29.597Z,101380.19
2022-12-26T13:14:34.519Z,101389.44
2022-12-26T13:15:40.395Z,101393.56
2022-12-26T13:16:44.301Z,101397.63
2022-12-26T13:17:52.237Z,101389.72
2022-12-26T13:18:57.818Z,101398.91
2022-12-26T13:20:18.663Z,101387.19
2022-12-26T13:21:24.749Z,101388.84
2022-12-26T13:22:55.004Z,101394.34
2022-12-26T13:24:19.922Z,101397.81
2022-12-26T13:25:25.109Z,101395.38
2022-12-26T13:26:36.452Z,101395.66
2022-12-26T13:27:45.466Z,101392.97
2022-12-26T13:29:11.140Z,101396.78
2022-12-26T13:30:29.795Z,101391.28
2022-12-26T13:36:07.506Z,101403.28
2022-12-26T13:37:38.013Z,101400.28
2022-12-26T13:39:13.724Z,101402.13
2022-12-26T13:40:25.697Z,101409.16
2022-12-26T13:41:51.727Z,101408.97
2022-12-26T13:43:26.245Z,101409.72
2022-12-26T13:44:31.167Z,101407.31
2022-12-26T13:45:36.050Z,101415.09
2022-12-26T13:46:44.425Z,101407.44
2022-12-26T13:49:36.553Z,101409.69
2022-12-26T13:50:56.693Z,101409.06
2022-12-26T13:52:20.070Z,101410.75
2022-12-26T13:53:45.652Z,101404.63
2022-12-26T13:54:48.940Z,101409.13
2022-12-26T13:56:01.068Z,101409.94
2022-12-26T13:57:18.954Z,101401.00
2022-12-26T13:58:20.918Z,101408.84
2022-12-26T13:59:30.705Z,101407.31
2022-12-26T14:00:44.575Z,101401.56
2022-12-26T14:01:46.713Z,101406.91
2022-12-26T14:03:19.221Z,101408.81
2022-12-26T14:04:25.247Z,101397.53
2022-12-26T14:05:34.070Z,101404.00
2022-12-26T14:06:35.902Z,101401.00
2022-12-26T14:07:55.082Z,101402.63
2022-12-26T14:09:03.211Z,101400.44
2022-12-26T14:10:12.348Z,101401.00
2022-12-26T14:11:20.509Z,101404.81
2022-12-26T14:12:41.076Z,101395.03
2022-12-26T14:13:42.992Z,101403.31
2022-12-26T14:14:52.493Z,101397.59
2022-12-26T14:16:04.773Z,101403.88
2022-12-26T14:17:33.767Z,101399.28
2022-12-26T14:18:41.643Z,101399.81
2022-12-26T14:19:43.702Z,101392.19
2022-12-26T14:20:45.813Z,101388.94
2022-12-26T14:22:06.655Z,101395.44
2022-12-26T14:23:15.454Z,101386.88
2022-12-26T14:24:26.350Z,101390.19
2022-12-26T14:25:50.752Z,101398.81
2022-12-26T14:26:59.140Z,101398.16
2022-12-26T14:28:10.968Z,101394.13
2022-12-26T14:29:28.484Z,101395.47
2022-12-26T14:30:37.296Z,101393.59
2022-12-26T14:31:43.017Z,101389.00
2022-12-26T14:32:50.933Z,101387.91
2022-12-26T14:33:59.457Z,101389.28
2022-12-26T14:35:04.085Z,101389.75
2022-12-26T14:36:20.967Z,101390.25
2022-12-26T14:37:43.054Z,101384.66
2022-12-26T14:39:08.012Z,101381.94
2022-12-26T14:40:24.433Z,101384.19
2022-12-26T14:41:44.625Z,101386.88
2022-12-26T14:43:10.846Z,101386.91
2022-12-26T14:44:24.915Z,101383.09
2022-12-26T14:45:29.573Z,101381.47
2022-12-26T14:46:51.732Z,101384.16
2022-12-26T14:47:53.869Z,101388.69
2022-12-26T14:48:58.140Z,101378.28
2022-12-26T14:50:19.914Z,101380.31